sensor_id;sensor_type;location;lat;lon;timestamp;P1;durP1;ratioP1;P2;durP2;ratioP2
16892;SDS011;8563;52.242;9.098;2022-10-18T00:00:47;10.23;;;8.93;;
16892;SDS011;8563;52.242;9.098;2022-10-18T00:03:19;12.23;;;9.30;;
16892;SDS011;8563;52.242;9.098;2022-10-18T00:05:52;10.82;;;8.98;;
16892;SDS011;8563;52.242;9.098;2022-10-18T00:08:26;9.82;;;8.93;;
16892;SDS011;8563;52.242;9.098;2022-10-18T00:10:58;12.13;;;9.57;;
16892;SDS011;8563;52.242;9.098;2022-10-18T00:13:31;11.23;;;10.13;;
16892;SDS011;8563;52.242;9.098;2022-10-18T00:16:04;12.38;;;10.93;;
16892;SDS011;8563;52.242;9.098;2022-10-18T00:18:37;13.40;;;12.00;;
16892;SDS011;8563;52.242;9.098;2022-10-18T00:21:11;11.82;;;10.63;;
16892;SDS011;8563;52.242;9.098;2022-10-18T00:23:45;14.57;;;11.40;;
16892;SDS011;8563;52.242;9.098;2022-10-18T00:26:19;11.60;;;10.57;;
16892;SDS011;8563;52.242;9.098;2022-10-18T00:28:52;12.53;;;9.83;;
16892;SDS011;8563;52.242;9.098;2022-10-18T00:31:26;13.50;;;10.90;;
16892;SDS011;8563;52.242;9.098;2022-10-18T00:33:59;12.90;;;10.88;;
16892;SDS011;8563;52.242;9.098;2022-10-18T00:36:32;12.07;;;10.87;;
16892;SDS011;8563;52.242;9.098;2022-10-18T00:39:07;14.23;;;12.82;;
16892;SDS011;8563;52.242;9.098;2022-10-18T00:41:39;15.03;;;13.20;;
16892;SDS011;8563;52.242;9.098;2022-10-18T00:47:05;14.98;;;13.57;;
16892;SDS011;8563;52.242;9.098;2022-10-18T00:49:39;13.95;;;12.63;;
16892;SDS011;8563;52.242;9.098;2022-10-18T00:52:16;15.30;;;13.80;;
16892;SDS011;8563;52.242;9.098;2022-10-18T00:54:51;14.82;;;13.38;;
16892;SDS011;8563;52.242;9.098;2022-10-18T00:57:24;15.10;;;13.60;;
16892;SDS011;8563;52.242;9.098;2022-10-18T00:59:57;15.23;;;13.68;;
16892;SDS011;8563;52.242;9.098;2022-10-18T01:02:29;17.05;;;14.85;;
16892;SDS011;8563;52.242;9.098;2022-10-18T01:05:03;14.87;;;13.37;;
16892;SDS011;8563;52.242;9.098;2022-10-18T01:07:40;14.68;;;13.40;;
16892;SDS011;8563;52.242;9.098;2022-10-18T01:10:20;15.90;;;14.30;;
16892;SDS011;8563;52.242;9.098;2022-10-18T01:12:57;15.95;;;14.25;;
16892;SDS011;8563;52.242;9.098;2022-10-18T01:15:33;14.40;;;13.07;;
16892;SDS011;8563;52.242;9.098;2022-10-18T01:18:11;16.33;;;14.50;;
16892;SDS011;8563;52.242;9.098;2022-10-18T01:20:53;15.43;;;14.00;;
16892;SDS011;8563;52.242;9.098;2022-10-18T01:23:30;14.98;;;13.50;;
16892;SDS011;8563;52.242;9.098;2022-10-18T01:26:11;15.20;;;13.55;;
16892;SDS011;8563;52.242;9.098;2022-10-18T01:28:50;14.32;;;12.90;;
16892;SDS011;8563;52.242;9.098;2022-10-18T01:31:26;13.77;;;12.40;;
16892;SDS011;8563;52.242;9.098;2022-10-18T01:34:01;15.07;;;13.27;;
16892;SDS011;8563;52.242;9.098;2022-10-18T01:36:35;14.97;;;13.53;;
16892;SDS011;8563;52.242;9.098;2022-10-18T01:39:10;15.47;;;13.20;;
16892;SDS011;8563;52.242;9.098;2022-10-18T01:41:43;13.03;;;11.73;;
16892;SDS011;8563;52.242;9.098;2022-10-18T01:44:17;12.37;;;11.10;;
16892;SDS011;8563;52.242;9.098;2022-10-18T01:46:53;13.17;;;11.87;;
16892;SDS011;8563;52.242;9.098;2022-10-18T01:49:26;15.13;;;12.90;;
16892;SDS011;8563;52.242;9.098;2022-10-18T01:51:58;13.83;;;12.20;;
16892;SDS011;8563;52.242;9.098;2022-10-18T01:54:31;12.03;;;10.83;;
16892;SDS011;8563;52.242;9.098;2022-10-18T01:57:05;11.77;;;10.60;;
16892;SDS011;8563;52.242;9.098;2022-10-18T01:59:41;11.13;;;9.80;;
16892;SDS011;8563;52.242;9.098;2022-10-18T02:02:21;12.70;;;10.23;;
16892;SDS011;8563;52.242;9.098;2022-10-18T02:04:58;10.93;;;9.20;;
16892;SDS011;8563;52.242;9.098;2022-10-18T02:07:38;10.10;;;9.00;;
16892;SDS011;8563;52.242;9.098;2022-10-18T02:10:14;9.37;;;8.47;;
16892;SDS011;8563;52.242;9.098;2022-10-18T02:12:48;9.87;;;8.87;;
16892;SDS011;8563;52.242;9.098;2022-10-18T02:15:22;10.43;;;9.10;;
16892;SDS011;8563;52.242;9.098;2022-10-18T02:17:57;11.20;;;8.87;;
16892;SDS011;8563;52.242;9.098;2022-10-18T02:20:30;8.87;;;8.00;;
16892;SDS011;8563;52.242;9.098;2022-10-18T02:23:03;11.50;;;8.53;;
16892;SDS011;8563;52.242;9.098;2022-10-18T02:25:37;9.37;;;7.73;;
16892;SDS011;8563;52.242;9.098;2022-10-18T02:28:10;9.63;;;7.80;;
16892;SDS011;8563;52.242;9.098;2022-10-18T02:30:43;8.03;;;7.23;;
16892;SDS011;8563;52.242;9.098;2022-10-18T02:33:20;8.83;;;7.07;;
16892;SDS011;8563;52.242;9.098;2022-10-18T02:35:55;10.07;;;7.43;;
16892;SDS011;8563;52.242;9.098;2022-10-18T02:38:31;8.27;;;7.40;;
16892;SDS011;8563;52.242;9.098;2022-10-18T02:41:03;7.80;;;7.00;;
16892;SDS011;8563;52.242;9.098;2022-10-18T02:43:36;9.10;;;7.17;;
16892;SDS011;8563;52.242;9.098;2022-10-18T02:46:09;7.63;;;6.70;;
16892;SDS011;8563;52.242;9.098;2022-10-18T02:48:43;10.40;;;7.23;;
16892;SDS011;8563;52.242;9.098;2022-10-18T02:51:16;11.10;;;8.40;;
16892;SDS011;8563;52.242;9.098;2022-10-18T02:53:48;8.63;;;7.60;;
16892;SDS011;8563;52.242;9.098;2022-10-18T02:56:21;7.80;;;7.10;;
16892;SDS011;8563;52.242;9.098;2022-10-18T02:58:54;9.93;;;7.53;;
16892;SDS011;8563;52.242;9.098;2022-10-18T03:01:26;8.20;;;7.40;;
16892;SDS011;8563;52.242;9.098;2022-10-18T03:04:00;9.43;;;8.00;;
16892;SDS011;8563;52.242;9.098;2022-10-18T03:06:33;7.90;;;7.10;;
16892;SDS011;8563;52.242;9.098;2022-10-18T03:09:06;12.07;;;9.63;;
16892;SDS011;8563;52.242;9.098;2022-10-18T03:11:38;10.63;;;8.50;;
16892;SDS011;8563;52.242;9.098;2022-10-18T03:14:11;11.13;;;8.60;;
16892;SDS011;8563;52.242;9.098;2022-10-18T03:16:44;10.57;;;9.50;;
16892;SDS011;8563;52.242;9.098;2022-10-18T03:19:17;9.47;;;8.40;;
16892;SDS011;8563;52.242;9.098;2022-10-18T03:21:50;11.87;;;8.93;;
16892;SDS011;8563;52.242;9.098;2022-10-18T03:24:23;10.70;;;9.40;;
16892;SDS011;8563;52.242;9.098;2022-10-18T03:26:55;12.93;;;9.10;;
16892;SDS011;8563;52.242;9.098;2022-10-18T03:29:28;11.27;;;9.70;;
16892;SDS011;8563;52.242;9.098;2022-10-18T03:32:01;10.30;;;9.00;;
16892;SDS011;8563;52.242;9.098;2022-10-18T03:34:35;12.73;;;9.63;;
16892;SDS011;8563;52.242;9.098;2022-10-18T03:37:07;10.80;;;9.73;;
16892;SDS011;8563;52.242;9.098;2022-10-18T03:39:39;15.07;;;10.37;;
16892;SDS011;8563;52.242;9.098;2022-10-18T03:42:12;13.17;;;10.07;;
16892;SDS011;8563;52.242;9.098;2022-10-18T03:44:45;13.40;;;10.57;;
16892;SDS011;8563;52.242;9.098;2022-10-18T03:47:17;11.70;;;10.03;;
16892;SDS011;8563;52.242;9.098;2022-10-18T03:49:51;12.43;;;9.03;;
16892;SDS011;8563;52.242;9.098;2022-10-18T03:52:24;13.27;;;10.60;;
16892;SDS011;8563;52.242;9.098;2022-10-18T03:54:57;13.37;;;12.00;;
16892;SDS011;8563;52.242;9.098;2022-10-18T03:57:29;12.63;;;11.23;;
16892;SDS011;8563;52.242;9.098;2022-10-18T04:00:02;13.13;;;11.77;;
16892;SDS011;8563;52.242;9.098;2022-10-18T04:02:42;16.53;;;11.60;;
16892;SDS011;8563;52.242;9.098;2022-10-18T04:05:16;12.73;;;11.03;;
16892;SDS011;8563;52.242;9.098;2022-10-18T04:07:49;14.17;;;10.77;;
16892;SDS011;8563;52.242;9.098;2022-10-18T04:10:21;18.23;;;11.30;;
16892;SDS011;8563;52.242;9.098;2022-10-18T04:12:54;15.40;;;11.03;;
16892;SDS011;8563;52.242;9.098;2022-10-18T04:15:27;13.73;;;11.00;;
16892;SDS011;8563;52.242;9.098;2022-10-18T04:17:59;12.13;;;10.90;;
16892;SDS011;8563;52.242;9.098;2022-10-18T04:20:33;11.03;;;9.70;;
16892;SDS011;8563;52.242;9.098;2022-10-18T04:23:06;12.53;;;10.63;;
16892;SDS011;8563;52.242;9.098;2022-10-18T04:25:39;12.53;;;11.33;;
16892;SDS011;8563;52.242;9.098;2022-10-18T04:28:11;13.43;;;10.90;;
16892;SDS011;8563;52.242;9.098;2022-10-18T04:30:47;13.73;;;12.17;;
16892;SDS011;8563;52.242;9.098;2022-10-18T04:33:20;15.63;;;11.43;;
16892;SDS011;8563;52.242;9.098;2022-10-18T04:35:54;14.30;;;11.33;;
16892;SDS011;8563;52.242;9.098;2022-10-18T04:38:27;12.53;;;11.00;;
16892;SDS011;8563;52.242;9.098;2022-10-18T04:40:59;15.07;;;11.37;;
16892;SDS011;8563;52.242;9.098;2022-10-18T04:43:32;12.17;;;10.77;;
16892;SDS011;8563;52.242;9.098;2022-10-18T04:46:05;12.80;;;11.00;;
16892;SDS011;8563;52.242;9.098;2022-10-18T04:48:37;11.97;;;10.87;;
16892;SDS011;8563;52.242;9.098;2022-10-18T04:51:12;12.33;;;10.83;;
16892;SDS011;8563;52.242;9.098;2022-10-18T04:53:44;15.57;;;10.87;;
16892;SDS011;8563;52.242;9.098;2022-10-18T04:56:17;15.57;;;12.43;;
16892;SDS011;8563;52.242;9.098;2022-10-18T04:58:49;16.43;;;12.47;;
16892;SDS011;8563;52.242;9.098;2022-10-18T05:01:22;14.23;;;11.43;;
16892;SDS011;8563;52.242;9.098;2022-10-18T05:03:55;13.57;;;11.87;;
16892;SDS011;8563;52.242;9.098;2022-10-18T05:06:29;14.67;;;11.03;;
16892;SDS011;8563;52.242;9.098;2022-10-18T05:09:02;16.33;;;12.40;;
16892;SDS011;8563;52.242;9.098;2022-10-18T05:11:34;17.87;;;12.07;;
16892;SDS011;8563;52.242;9.098;2022-10-18T05:14:07;15.23;;;12.77;;
16892;SDS011;8563;52.242;9.098;2022-10-18T05:16:40;16.03;;;12.37;;
16892;SDS011;8563;52.242;9.098;2022-10-18T05:19:13;13.73;;;11.17;;
16892;SDS011;8563;52.242;9.098;2022-10-18T05:21:47;14.70;;;10.90;;
16892;SDS011;8563;52.242;9.098;2022-10-18T05:24:20;15.33;;;11.53;;
16892;SDS011;8563;52.242;9.098;2022-10-18T05:26:52;13.07;;;10.57;;
16892;SDS011;8563;52.242;9.098;2022-10-18T05:29:25;12.90;;;11.47;;
16892;SDS011;8563;52.242;9.098;2022-10-18T05:31:57;14.90;;;11.43;;
16892;SDS011;8563;52.242;9.098;2022-10-18T05:34:30;13.57;;;11.53;;
16892;SDS011;8563;52.242;9.098;2022-10-18T05:37:04;13.80;;;11.33;;
16892;SDS011;8563;52.242;9.098;2022-10-18T05:39:37;13.10;;;10.90;;
16892;SDS011;8563;52.242;9.098;2022-10-18T05:42:09;15.60;;;10.97;;
16892;SDS011;8563;52.242;9.098;2022-10-18T05:44:42;12.40;;;10.67;;
16892;SDS011;8563;52.242;9.098;2022-10-18T05:47:14;12.50;;;10.93;;
16892;SDS011;8563;52.242;9.098;2022-10-18T05:49:47;12.93;;;11.53;;
16892;SDS011;8563;52.242;9.098;2022-10-18T05:52:21;13.07;;;10.90;;
16892;SDS011;8563;52.242;9.098;2022-10-18T05:54:54;14.00;;;11.47;;
16892;SDS011;8563;52.242;9.098;2022-10-18T05:57:26;15.97;;;11.30;;
16892;SDS011;8563;52.242;9.098;2022-10-18T05:59:59;11.90;;;10.70;;
16892;SDS011;8563;52.242;9.098;2022-10-18T06:02:31;14.73;;;11.50;;
16892;SDS011;8563;52.242;9.098;2022-10-18T06:05:04;14.37;;;11.27;;
16892;SDS011;8563;52.242;9.098;2022-10-18T06:07:38;13.40;;;11.77;;
16892;SDS011;8563;52.242;9.098;2022-10-18T06:10:11;11.10;;;10.00;;
16892;SDS011;8563;52.242;9.098;2022-10-18T06:12:44;13.33;;;10.97;;
16892;SDS011;8563;52.242;9.098;2022-10-18T06:15:16;12.77;;;11.47;;
16892;SDS011;8563;52.242;9.098;2022-10-18T06:17:49;13.30;;;11.63;;
16892;SDS011;8563;52.242;9.098;2022-10-18T06:20:21;12.27;;;10.97;;
16892;SDS011;8563;52.242;9.098;2022-10-18T06:22:55;16.17;;;12.33;;
16892;SDS011;8563;52.242;9.098;2022-10-18T06:25:28;13.13;;;11.67;;
16892;SDS011;8563;52.242;9.098;2022-10-18T06:28:02;13.60;;;11.17;;
16892;SDS011;8563;52.242;9.098;2022-10-18T06:30:35;15.17;;;12.63;;
16892;SDS011;8563;52.242;9.098;2022-10-18T06:33:07;12.23;;;10.97;;
16892;SDS011;8563;52.242;9.098;2022-10-18T06:35:41;12.97;;;11.43;;
16892;SDS011;8563;52.242;9.098;2022-10-18T06:38:15;16.50;;;12.63;;
16892;SDS011;8563;52.242;9.098;2022-10-18T06:40:47;14.33;;;12.67;;
16892;SDS011;8563;52.242;9.098;2022-10-18T06:43:20;15.30;;;12.20;;
16892;SDS011;8563;52.242;9.098;2022-10-18T06:45:53;13.80;;;12.33;;
16892;SDS011;8563;52.242;9.098;2022-10-18T06:48:26;13.77;;;12.37;;
16892;SDS011;8563;52.242;9.098;2022-10-18T06:50:59;16.50;;;13.27;;
16892;SDS011;8563;52.242;9.098;2022-10-18T06:53:34;15.03;;;12.67;;
16892;SDS011;8563;52.242;9.098;2022-10-18T06:56:08;17.63;;;11.90;;
16892;SDS011;8563;52.242;9.098;2022-10-18T06:58:41;15.90;;;12.70;;
16892;SDS011;8563;52.242;9.098;2022-10-18T07:01:14;13.70;;;12.17;;
16892;SDS011;8563;52.242;9.098;2022-10-18T07:03:47;14.20;;;12.60;;
16892;SDS011;8563;52.242;9.098;2022-10-18T07:06:20;16.13;;;12.57;;
16892;SDS011;8563;52.242;9.098;2022-10-18T07:08:55;13.60;;;12.30;;
16892;SDS011;8563;52.242;9.098;2022-10-18T07:11:28;14.77;;;13.30;;
16892;SDS011;8563;52.242;9.098;2022-10-18T07:14:01;14.17;;;12.80;;
16892;SDS011;8563;52.242;9.098;2022-10-18T07:16:34;14.47;;;13.03;;
16892;SDS011;8563;52.242;9.098;2022-10-18T07:19:06;16.73;;;13.37;;
16892;SDS011;8563;52.242;9.098;2022-10-18T07:21:39;17.93;;;14.80;;
16892;SDS011;8563;52.242;9.098;2022-10-18T07:24:13;16.53;;;14.10;;
16892;SDS011;8563;52.242;9.098;2022-10-18T07:26:46;16.00;;;13.83;;
16892;SDS011;8563;52.242;9.098;2022-10-18T07:29:18;14.87;;;12.80;;
16892;SDS011;8563;52.242;9.098;2022-10-18T07:31:51;16.13;;;13.03;;
16892;SDS011;8563;52.242;9.098;2022-10-18T07:34:23;16.90;;;14.00;;
16892;SDS011;8563;52.242;9.098;2022-10-18T07:36:58;14.70;;;13.20;;
16892;SDS011;8563;52.242;9.098;2022-10-18T07:39:32;16.43;;;14.07;;
16892;SDS011;8563;52.242;9.098;2022-10-18T07:42:05;16.77;;;13.77;;
16892;SDS011;8563;52.242;9.098;2022-10-18T07:44:38;15.77;;;13.10;;
16892;SDS011;8563;52.242;9.098;2022-10-18T07:47:10;16.53;;;14.07;;
16892;SDS011;8563;52.242;9.098;2022-10-18T07:49:44;16.80;;;14.13;;
16892;SDS011;8563;52.242;9.098;2022-10-18T07:52:16;16.77;;;13.77;;
16892;SDS011;8563;52.242;9.098;2022-10-18T07:54:50;19.13;;;14.50;;
16892;SDS011;8563;52.242;9.098;2022-10-18T07:57:23;25.92;;;20.13;;
16892;SDS011;8563;52.242;9.098;2022-10-18T07:59:56;19.57;;;17.30;;
16892;SDS011;8563;52.242;9.098;2022-10-18T08:02:28;19.80;;;17.77;;
16892;SDS011;8563;52.242;9.098;2022-10-18T08:05:01;20.70;;;16.27;;
16892;SDS011;8563;52.242;9.098;2022-10-18T08:07:33;20.48;;;16.38;;
16892;SDS011;8563;52.242;9.098;2022-10-18T08:10:08;19.47;;;16.67;;
16892;SDS011;8563;52.242;9.098;2022-10-18T08:12:41;23.90;;;18.97;;
16892;SDS011;8563;52.242;9.098;2022-10-18T08:15:13;17.55;;;15.15;;
16892;SDS011;8563;52.242;9.098;2022-10-18T08:17:46;20.05;;;15.13;;
16892;SDS011;8563;52.242;9.098;2022-10-18T08:20:18;19.50;;;15.03;;
16892;SDS011;8563;52.242;9.098;2022-10-18T08:22:51;19.37;;;15.87;;
16892;SDS011;8563;52.242;9.098;2022-10-18T08:25:25;18.40;;;15.10;;
16892;SDS011;8563;52.242;9.098;2022-10-18T08:27:58;18.90;;;15.80;;
16892;SDS011;8563;52.242;9.098;2022-10-18T08:30:31;18.70;;;15.95;;
16892;SDS011;8563;52.242;9.098;2022-10-18T08:33:03;25.00;;;17.30;;
16892;SDS011;8563;52.242;9.098;2022-10-18T08:35:36;22.05;;;17.80;;
16892;SDS011;8563;52.242;9.098;2022-10-18T08:38:08;22.30;;;17.40;;
16892;SDS011;8563;52.242;9.098;2022-10-18T08:40:43;23.13;;;17.97;;
16892;SDS011;8563;52.242;9.098;2022-10-18T08:43:20;20.88;;;17.52;;
16892;SDS011;8563;52.242;9.098;2022-10-18T08:45:53;19.73;;;17.27;;
16892;SDS011;8563;52.242;9.098;2022-10-18T08:48:30;24.90;;;18.47;;
16892;SDS011;8563;52.242;9.098;2022-10-18T08:51:04;26.75;;;18.58;;
16892;SDS011;8563;52.242;9.098;2022-10-18T08:53:39;22.60;;;17.13;;
16892;SDS011;8563;52.242;9.098;2022-10-18T08:56:19;24.55;;;18.48;;
16892;SDS011;8563;52.242;9.098;2022-10-18T08:58:53;23.27;;;17.67;;
16892;SDS011;8563;52.242;9.098;2022-10-18T09:01:27;21.70;;;17.97;;
16892;SDS011;8563;52.242;9.098;2022-10-18T09:04:09;22.80;;;17.20;;
16892;SDS011;8563;52.242;9.098;2022-10-18T09:06:48;19.53;;;17.47;;
16892;SDS011;8563;52.242;9.098;2022-10-18T09:09:28;20.93;;;17.50;;
16892;SDS011;8563;52.242;9.098;2022-10-18T09:12:12;21.60;;;16.50;;
16892;SDS011;8563;52.242;9.098;2022-10-18T09:14:58;26.30;;;18.83;;
16892;SDS011;8563;52.242;9.098;2022-10-18T09:17:34;22.75;;;16.95;;
16892;SDS011;8563;52.242;9.098;2022-10-18T09:20:15;24.63;;;17.88;;
16892;SDS011;8563;52.242;9.098;2022-10-18T09:22:52;23.60;;;15.80;;
16892;SDS011;8563;52.242;9.098;2022-10-18T09:25:25;19.57;;;16.10;;
16892;SDS011;8563;52.242;9.098;2022-10-18T09:28:06;18.38;;;14.40;;
16892;SDS011;8563;52.242;9.098;2022-10-18T09:30:48;20.52;;;15.00;;
16892;SDS011;8563;52.242;9.098;2022-10-18T09:33:32;18.50;;;13.80;;
16892;SDS011;8563;52.242;9.098;2022-10-18T09:36:09;18.00;;;12.10;;
16892;SDS011;8563;52.242;9.098;2022-10-18T09:38:43;13.95;;;11.85;;
16892;SDS011;8563;52.242;9.098;2022-10-18T09:41:18;14.68;;;11.75;;
16892;SDS011;8563;52.242;9.098;2022-10-18T09:43:55;15.77;;;10.73;;
16892;SDS011;8563;52.242;9.098;2022-10-18T09:46:30;16.65;;;11.35;;
16892;SDS011;8563;52.242;9.098;2022-10-18T09:49:04;15.30;;;10.98;;
16892;SDS011;8563;52.242;9.098;2022-10-18T09:51:39;19.90;;;11.85;;
16892;SDS011;8563;52.242;9.098;2022-10-18T09:54:14;15.80;;;12.15;;
16892;SDS011;8563;52.242;9.098;2022-10-18T09:56:48;20.00;;;12.55;;
16892;SDS011;8563;52.242;9.098;2022-10-18T09:59:26;18.80;;;13.35;;
16892;SDS011;8563;52.242;9.098;2022-10-18T10:01:59;20.40;;;15.98;;
16892;SDS011;8563;52.242;9.098;2022-10-18T10:04:32;23.98;;;15.38;;
16892;SDS011;8563;52.242;9.098;2022-10-18T10:07:06;25.13;;;15.88;;
16892;SDS011;8563;52.242;9.098;2022-10-18T10:09:39;24.30;;;15.65;;
16892;SDS011;8563;52.242;9.098;2022-10-18T10:12:26;19.95;;;15.15;;
16892;SDS011;8563;52.242;9.098;2022-10-18T10:15:07;20.05;;;14.48;;
16892;SDS011;8563;52.242;9.098;2022-10-18T10:17:40;24.52;;;16.73;;
16892;SDS011;8563;52.242;9.098;2022-10-18T10:20:14;25.90;;;15.20;;
16892;SDS011;8563;52.242;9.098;2022-10-18T10:22:49;16.90;;;13.80;;
16892;SDS011;8563;52.242;9.098;2022-10-18T10:25:25;19.02;;;13.30;;
16892;SDS011;8563;52.242;9.098;2022-10-18T10:28:00;16.83;;;12.05;;
16892;SDS011;8563;52.242;9.098;2022-10-18T10:30:35;17.15;;;11.00;;
16892;SDS011;8563;52.242;9.098;2022-10-18T10:33:27;16.73;;;9.85;;
16892;SDS011;8563;52.242;9.098;2022-10-18T10:36:02;16.75;;;10.88;;
16892;SDS011;8563;52.242;9.098;2022-10-18T10:38:34;16.38;;;10.20;;
16892;SDS011;8563;52.242;9.098;2022-10-18T10:41:13;15.73;;;9.40;;
16892;SDS011;8563;52.242;9.098;2022-10-18T10:43:49;16.27;;;9.50;;
16892;SDS011;8563;52.242;9.098;2022-10-18T10:46:23;13.68;;;9.25;;
16892;SDS011;8563;52.242;9.098;2022-10-18T10:49:04;13.75;;;8.77;;
16892;SDS011;8563;52.242;9.098;2022-10-18T10:51:37;12.45;;;8.45;;
16892;SDS011;8563;52.242;9.098;2022-10-18T10:54:11;20.77;;;9.55;;
16892;SDS011;8563;52.242;9.098;2022-10-18T10:56:50;11.15;;;8.25;;
16892;SDS011;8563;52.242;9.098;2022-10-18T10:59:25;13.35;;;8.40;;
16892;SDS011;8563;52.242;9.098;2022-10-18T11:02:15;16.55;;;11.80;;
16892;SDS011;8563;52.242;9.098;2022-10-18T11:04:51;15.15;;;11.93;;
16892;SDS011;8563;52.242;9.098;2022-10-18T11:07:24;22.88;;;14.52;;
16892;SDS011;8563;52.242;9.098;2022-10-18T11:10:00;22.13;;;14.77;;
16892;SDS011;8563;52.242;9.098;2022-10-18T11:12:35;17.15;;;13.80;;
16892;SDS011;8563;52.242;9.098;2022-10-18T11:15:17;23.45;;;15.18;;
16892;SDS011;8563;52.242;9.098;2022-10-18T11:17:58;23.27;;;15.27;;
16892;SDS011;8563;52.242;9.098;2022-10-18T11:20:32;19.33;;;14.15;;
16892;SDS011;8563;52.242;9.098;2022-10-18T11:23:07;20.38;;;14.00;;
16892;SDS011;8563;52.242;9.098;2022-10-18T11:25:43;21.33;;;14.02;;
16892;SDS011;8563;52.242;9.098;2022-10-18T11:28:22;20.45;;;13.30;;
16892;SDS011;8563;52.242;9.098;2022-10-18T11:31:00;13.05;;;11.13;;
16892;SDS011;8563;52.242;9.098;2022-10-18T11:33:39;20.00;;;12.10;;
16892;SDS011;8563;52.242;9.098;2022-10-18T11:36:17;17.80;;;11.38;;
16892;SDS011;8563;52.242;9.098;2022-10-18T11:38:51;18.90;;;10.60;;
16892;SDS011;8563;52.242;9.098;2022-10-18T11:41:30;16.90;;;10.82;;
16892;SDS011;8563;52.242;9.098;2022-10-18T11:44:09;18.08;;;10.88;;
16892;SDS011;8563;52.242;9.098;2022-10-18T11:46:48;21.02;;;10.88;;
16892;SDS011;8563;52.242;9.098;2022-10-18T11:52:12;16.63;;;10.45;;
16892;SDS011;8563;52.242;9.098;2022-10-18T11:54:51;16.67;;;11.45;;
16892;SDS011;8563;52.242;9.098;2022-10-18T11:57:34;15.55;;;9.52;;
16892;SDS011;8563;52.242;9.098;2022-10-18T12:00:20;16.10;;;9.45;;
16892;SDS011;8563;52.242;9.098;2022-10-18T12:03:10;14.80;;;8.77;;
16892;SDS011;8563;52.242;9.098;2022-10-18T12:05:44;13.15;;;8.27;;
16892;SDS011;8563;52.242;9.098;2022-10-18T12:08:21;13.00;;;7.93;;
16892;SDS011;8563;52.242;9.098;2022-10-18T12:10:55;12.75;;;8.20;;
16892;SDS011;8563;52.242;9.098;2022-10-18T12:13:29;15.95;;;8.98;;
16892;SDS011;8563;52.242;9.098;2022-10-18T12:16:05;13.95;;;7.30;;
16892;SDS011;8563;52.242;9.098;2022-10-18T12:18:42;10.38;;;6.53;;
16892;SDS011;8563;52.242;9.098;2022-10-18T12:21:17;11.65;;;6.47;;
16892;SDS011;8563;52.242;9.098;2022-10-18T12:23:52;11.15;;;5.70;;
16892;SDS011;8563;52.242;9.098;2022-10-18T12:26:25;11.73;;;5.88;;
16892;SDS011;8563;52.242;9.098;2022-10-18T12:29:01;11.93;;;5.25;;
16892;SDS011;8563;52.242;9.098;2022-10-18T12:31:37;8.73;;;4.97;;
16892;SDS011;8563;52.242;9.098;2022-10-18T12:37:11;11.20;;;4.55;;
16892;SDS011;8563;52.242;9.098;2022-10-18T12:39:48;11.43;;;3.95;;
16892;SDS011;8563;52.242;9.098;2022-10-18T12:42:22;11.93;;;3.40;;
16892;SDS011;8563;52.242;9.098;2022-10-18T12:45:00;8.93;;;3.03;;
16892;SDS011;8563;52.242;9.098;2022-10-18T12:47:33;6.45;;;2.92;;
16892;SDS011;8563;52.242;9.098;2022-10-18T12:50:07;8.60;;;2.50;;
16892;SDS011;8563;52.242;9.098;2022-10-18T12:53:00;8.73;;;2.38;;
16892;SDS011;8563;52.242;9.098;2022-10-18T12:55:35;11.05;;;3.25;;
16892;SDS011;8563;52.242;9.098;2022-10-18T13:01:05;5.30;;;2.10;;
16892;SDS011;8563;52.242;9.098;2022-10-18T13:06:26;7.25;;;2.20;;
16892;SDS011;8563;52.242;9.098;2022-10-18T13:09:19;7.03;;;2.60;;
16892;SDS011;8563;52.242;9.098;2022-10-18T13:11:55;6.57;;;1.80;;
16892;SDS011;8563;52.242;9.098;2022-10-18T13:14:35;4.93;;;1.58;;
16892;SDS011;8563;52.242;9.098;2022-10-18T13:17:12;4.50;;;2.10;;
16892;SDS011;8563;52.242;9.098;2022-10-18T13:19:50;4.53;;;1.92;;
16892;SDS011;8563;52.242;9.098;2022-10-18T13:22:35;6.38;;;2.10;;
16892;SDS011;8563;52.242;9.098;2022-10-18T13:25:17;9.18;;;2.20;;
16892;SDS011;8563;52.242;9.098;2022-10-18T13:27:54;8.80;;;2.65;;
16892;SDS011;8563;52.242;9.098;2022-10-18T13:30:30;8.98;;;3.08;;
16892;SDS011;8563;52.242;9.098;2022-10-18T13:33:08;5.40;;;2.30;;
16892;SDS011;8563;52.242;9.098;2022-10-18T13:35:52;6.40;;;2.92;;
16892;SDS011;8563;52.242;9.098;2022-10-18T13:38:30;7.05;;;2.33;;
16892;SDS011;8563;52.242;9.098;2022-10-18T13:41:05;6.70;;;2.28;;
16892;SDS011;8563;52.242;9.098;2022-10-18T13:49:29;5.38;;;2.20;;
16892;SDS011;8563;52.242;9.098;2022-10-18T13:52:06;4.22;;;1.73;;
16892;SDS011;8563;52.242;9.098;2022-10-18T13:54:58;4.78;;;2.00;;
16892;SDS011;8563;52.242;9.098;2022-10-18T13:57:40;7.28;;;2.60;;
16892;SDS011;8563;52.242;9.098;2022-10-18T14:00:20;5.28;;;2.05;;
16892;SDS011;8563;52.242;9.098;2022-10-18T14:03:03;4.47;;;1.80;;
16892;SDS011;8563;52.242;9.098;2022-10-18T14:05:51;4.95;;;1.60;;
16892;SDS011;8563;52.242;9.098;2022-10-18T14:08:24;5.20;;;1.98;;
16892;SDS011;8563;52.242;9.098;2022-10-18T14:11:01;4.97;;;1.50;;
16892;SDS011;8563;52.242;9.098;2022-10-18T14:13:40;4.50;;;1.80;;
16892;SDS011;8563;52.242;9.098;2022-10-18T14:16:22;5.20;;;1.85;;
16892;SDS011;8563;52.242;9.098;2022-10-18T14:19:00;4.43;;;1.63;;
16892;SDS011;8563;52.242;9.098;2022-10-18T14:21:37;6.95;;;1.80;;
16892;SDS011;8563;52.242;9.098;2022-10-18T14:24:14;3.28;;;1.27;;
16892;SDS011;8563;52.242;9.098;2022-10-18T14:29:36;4.72;;;1.55;;
16892;SDS011;8563;52.242;9.098;2022-10-18T14:32:09;4.90;;;1.65;;
16892;SDS011;8563;52.242;9.098;2022-10-18T14:34:42;8.88;;;1.98;;
16892;SDS011;8563;52.242;9.098;2022-10-18T14:37:20;5.13;;;1.70;;
16892;SDS011;8563;52.242;9.098;2022-10-18T14:39:53;4.72;;;1.38;;
16892;SDS011;8563;52.242;9.098;2022-10-18T14:42:26;4.07;;;1.67;;
16892;SDS011;8563;52.242;9.098;2022-10-18T14:44:59;4.20;;;1.67;;
16892;SDS011;8563;52.242;9.098;2022-10-18T14:47:32;5.75;;;1.40;;
16892;SDS011;8563;52.242;9.098;2022-10-18T14:50:17;6.57;;;1.90;;
16892;SDS011;8563;52.242;9.098;2022-10-18T14:52:53;5.63;;;1.30;;
16892;SDS011;8563;52.242;9.098;2022-10-18T14:55:25;2.45;;;1.13;;
16892;SDS011;8563;52.242;9.098;2022-10-18T14:57:58;5.50;;;1.48;;
16892;SDS011;8563;52.242;9.098;2022-10-18T15:00:33;3.65;;;1.30;;
16892;SDS011;8563;52.242;9.098;2022-10-18T15:03:09;4.57;;;1.37;;
16892;SDS011;8563;52.242;9.098;2022-10-18T15:05:53;4.22;;;1.33;;
16892;SDS011;8563;52.242;9.098;2022-10-18T15:08:28;3.28;;;1.60;;
16892;SDS011;8563;52.242;9.098;2022-10-18T15:11:02;5.07;;;1.37;;
16892;SDS011;8563;52.242;9.098;2022-10-18T15:13:36;4.40;;;1.40;;
16892;SDS011;8563;52.242;9.098;2022-10-18T15:16:10;4.67;;;1.43;;
16892;SDS011;8563;52.242;9.098;2022-10-18T15:19:00;7.38;;;1.42;;
16892;SDS011;8563;52.242;9.098;2022-10-18T15:21:33;2.50;;;1.00;;
16892;SDS011;8563;52.242;9.098;2022-10-18T15:24:27;3.03;;;1.40;;
16892;SDS011;8563;52.242;9.098;2022-10-18T15:27:01;7.13;;;1.77;;
16892;SDS011;8563;52.242;9.098;2022-10-18T15:29:40;6.53;;;1.63;;
16892;SDS011;8563;52.242;9.098;2022-10-18T15:32:15;4.10;;;1.47;;
16892;SDS011;8563;52.242;9.098;2022-10-18T15:34:49;4.37;;;1.83;;
16892;SDS011;8563;52.242;9.098;2022-10-18T15:37:28;4.00;;;1.30;;
16892;SDS011;8563;52.242;9.098;2022-10-18T15:40:16;5.67;;;1.27;;
16892;SDS011;8563;52.242;9.098;2022-10-18T15:42:49;3.70;;;1.20;;
16892;SDS011;8563;52.242;9.098;2022-10-18T15:45:28;3.57;;;1.57;;
16892;SDS011;8563;52.242;9.098;2022-10-18T15:48:18;5.10;;;1.57;;
16892;SDS011;8563;52.242;9.098;2022-10-18T15:50:51;4.57;;;1.50;;
16892;SDS011;8563;52.242;9.098;2022-10-18T15:53:30;3.83;;;1.27;;